Time;durP1;ratioP1;P1;durP2;ratioP2;P2;SDS_P1;SDS_P2;PMS_P1;PMS_P2;Temp;Humidity;BMP_temperature;BMP_pressure;BME280_temperature;BME280_humidity;BME280_pressure;Samples;Min_cycle;Max_cycle;Signal;HPM_P1;HPM_P2
2023/04/13 00:00:57;;;;;;;3.47;2.20;;;;;;;;;;4998312;28;20243;-74
2023/04/13 00:03:23;;;;;;;4.23;2.83;;;;;;;;;;4999456;28;20219;-74
2023/04/13 00:05:51;;;;;;;4.47;2.73;;;;;;;;;;4997511;28;20701;-74
2023/04/13 00:08:21;;;;;;;2.83;2.40;;;;;;;;;;4997894;28;20224;-74
2023/04/13 00:10:49;;;;;;;3.57;2.70;;;;;;;;;;4999604;28;20845;-74
2023/04/13 00:13:16;;;;;;;3.90;2.70;;;;;;;;;;4984300;28;20214;-73
2023/04/13 00:15:43;;;;;;;3.00;2.47;;;;;;;;;;4988020;28;20247;-74
2023/04/13 00:18:10;;;;;;;2.80;2.50;;;;;;;;;;4999095;28;20219;-74
2023/04/13 00:20:36;;;;;;;3.33;2.40;;;;;;;;;;4977185;28;20282;-74
2023/04/13 00:23:03;;;;;;;2.80;2.40;;;;;;;;;;5000964;28;20216;-74
2023/04/13 00:25:31;;;;;;;3.47;2.73;;;;;;;;;;4997165;28;20232;-73
2023/04/13 00:28:01;;;;;;;3.40;2.50;;;;;;;;;;4996780;28;20207;-74
2023/04/13 00:30:52;;;;;;;4.27;2.70;;;;;;;;;;4996116;28;20213;-73
2023/04/13 00:33:19;;;;;;;3.50;2.33;;;;;;;;;;4969674;28;20216;-74
2023/04/13 00:35:45;;;;;;;3.23;2.87;;;;;;;;;;4986267;28;20290;-74
2023/04/13 00:38:12;;;;;;;4.03;3.17;;;;;;;;;;4992153;28;20212;-74
2023/04/13 00:40:41;;;;;;;3.23;2.77;;;;;;;;;;4972277;28;21073;-74
2023/04/13 00:43:07;;;;;;;4.60;2.43;;;;;;;;;;4971715;28;20235;-74
2023/04/13 00:45:37;;;;;;;2.70;2.47;;;;;;;;;;4975292;28;20231;-74
2023/04/13 00:48:07;;;;;;;3.23;2.40;;;;;;;;;;4995976;28;20242;-74
2023/04/13 00:50:34;;;;;;;2.87;2.30;;;;;;;;;;4992364;28;20284;-74
2023/04/13 00:53:00;;;;;;;2.87;2.20;;;;;;;;;;4976343;28;20689;-74
2023/04/13 00:55:27;;;;;;;2.33;2.13;;;;;;;;;;4978487;28;21473;-74
2023/04/13 00:57:56;;;;;;;4.47;2.13;;;;;;;;;;4996867;28;20368;-74
2023/04/13 01:00:24;;;;;;;2.37;2.17;;;;;;;;;;4995853;28;20225;-73
2023/04/13 01:02:51;;;;;;;3.60;2.20;;;;;;;;;;4997661;28;20231;-74
2023/04/13 01:05:19;;;;;;;2.83;2.30;;;;;;;;;;4970593;28;20777;-73
2023/04/13 01:07:54;;;;;;;2.97;2.60;;;;;;;;;;4999611;28;20207;-73
2023/04/13 01:10:25;;;;;;;2.63;2.40;;;;;;;;;;4994948;28;20201;-73
2023/04/13 01:13:00;;;;;;;2.63;1.90;;;;;;;;;;4981656;28;20558;-73
2023/04/13 01:15:29;;;;;;;3.60;1.93;;;;;;;;;;4980199;28;20757;-73
2023/04/13 01:17:57;;;;;;;2.47;2.13;;;;;;;;;;4977408;28;20207;-72
2023/04/13 01:20:26;;;;;;;3.17;2.20;;;;;;;;;;4993544;28;20847;-72
2023/04/13 01:22:54;;;;;;;2.27;1.80;;;;;;;;;;4997684;28;20213;-72
2023/04/13 01:25:29;;;;;;;2.77;2.23;;;;;;;;;;4988337;28;20654;-73
2023/04/13 01:27:59;;;;;;;3.60;2.03;;;;;;;;;;4984293;28;20228;-73
2023/04/13 01:30:27;;;;;;;2.73;2.00;;;;;;;;;;4979035;28;20289;-72
2023/04/13 01:32:56;;;;;;;3.43;2.30;;;;;;;;;;4976285;28;20254;-72
2023/04/13 01:35:24;;;;;;;2.33;2.13;;;;;;;;;;4993198;28;20760;-72
2023/04/13 01:37:51;;;;;;;2.43;2.17;;;;;;;;;;4978700;28;20290;-72
2023/04/13 01:40:20;;;;;;;3.27;2.53;;;;;;;;;;4983768;28;20626;-73
2023/04/13 01:42:51;;;;;;;3.00;2.33;;;;;;;;;;4978236;28;20286;-73
2023/04/13 01:45:22;;;;;;;2.37;1.90;;;;;;;;;;4974559;28;20371;-73
2023/04/13 01:47:50;;;;;;;5.10;2.20;;;;;;;;;;5000369;28;20211;-73
2023/04/13 01:50:28;;;;;;;2.83;2.00;;;;;;;;;;4978723;28;20218;-72
2023/04/13 01:53:06;;;;;;;2.47;2.10;;;;;;;;;;4994773;28;20210;-73
2023/04/13 01:55:40;;;;;;;1.73;1.63;;;;;;;;;;4997797;28;20225;-72
2023/04/13 01:58:09;;;;;;;1.87;1.60;;;;;;;;;;4980886;28;20294;-73
2023/04/13 02:00:37;;;;;;;4.17;2.10;;;;;;;;;;5000005;28;20769;-73
2023/04/13 02:03:08;;;;;;;3.50;1.80;;;;;;;;;;4978071;28;20705;-73
2023/04/13 02:05:37;;;;;;;2.43;1.70;;;;;;;;;;4981288;28;20600;-73
2023/04/13 02:08:05;;;;;;;2.80;1.70;;;;;;;;;;4981032;28;20205;-73
2023/04/13 02:10:35;;;;;;;3.10;1.70;;;;;;;;;;4979361;28;20527;-73
2023/04/13 02:13:02;;;;;;;1.67;1.57;;;;;;;;;;5002511;28;20240;-73
2023/04/13 02:15:29;;;;;;;3.63;1.83;;;;;;;;;;4978628;28;20281;-73
2023/04/13 02:17:57;;;;;;;2.57;2.10;;;;;;;;;;5000318;28;20348;-73
2023/04/13 02:20:23;;;;;;;1.80;1.50;;;;;;;;;;4977933;28;20231;-72
2023/04/13 02:22:50;;;;;;;2.00;1.80;;;;;;;;;;4999444;28;20755;-73
2023/04/13 02:25:16;;;;;;;1.93;1.57;;;;;;;;;;4986361;28;20320;-73
2023/04/13 02:27:42;;;;;;;2.50;1.80;;;;;;;;;;4984323;28;20212;-72
2023/04/13 02:30:09;;;;;;;2.90;1.67;;;;;;;;;;4998735;28;20207;-73
2023/04/13 02:32:37;;;;;;;1.93;1.80;;;;;;;;;;4988900;28;20316;-72
2023/04/13 02:35:07;;;;;;;1.77;1.67;;;;;;;;;;4962214;28;20253;-73
2023/04/13 02:37:33;;;;;;;1.60;1.50;;;;;;;;;;4980180;28;20297;-72
2023/04/13 02:40:00;;;;;;;2.17;1.80;;;;;;;;;;4997095;28;20204;-72
2023/04/13 02:42:30;;;;;;;1.93;1.50;;;;;;;;;;4984051;28;20209;-73
2023/04/13 02:44:57;;;;;;;1.80;1.70;;;;;;;;;;4990335;28;20229;-73
2023/04/13 02:47:23;;;;;;;2.00;1.80;;;;;;;;;;4977434;28;20216;-72
2023/04/13 02:49:50;;;;;;;2.03;1.77;;;;;;;;;;4995300;28;20580;-73
2023/04/13 02:52:25;;;;;;;2.10;1.83;;;;;;;;;;4980033;28;20217;-72
2023/04/13 02:54:58;;;;;;;2.00;1.80;;;;;;;;;;4975566;28;21636;-72
2023/04/13 02:57:29;;;;;;;2.00;1.80;;;;;;;;;;4979748;28;20205;-72
2023/04/13 02:59:57;;;;;;;2.90;1.80;;;;;;;;;;4997769;28;20213;-73
2023/04/13 03:02:28;;;;;;;2.20;2.00;;;;;;;;;;4977127;28;20305;-73
2023/04/13 03:04:55;;;;;;;2.07;1.87;;;;;;;;;;4987565;28;20214;-73
2023/04/13 03:07:24;;;;;;;1.50;1.40;;;;;;;;;;4995797;28;20228;-73
2023/04/13 03:09:54;;;;;;;3.63;1.70;;;;;;;;;;4982168;28;20274;-73
2023/04/13 03:12:20;;;;;;;2.17;1.77;;;;;;;;;;4997570;28;20580;-73
2023/04/13 03:14:48;;;;;;;2.97;2.10;;;;;;;;;;4986866;28;20579;-73
2023/04/13 03:17:15;;;;;;;3.53;1.80;;;;;;;;;;4981917;28;20198;-73
2023/04/13 03:19:45;;;;;;;1.70;1.60;;;;;;;;;;4969490;28;20228;-73
2023/04/13 03:22:11;;;;;;;2.20;1.90;;;;;;;;;;4996160;28;20262;-73
2023/04/13 03:24:44;;;;;;;2.07;1.90;;;;;;;;;;4998525;28;20210;-72
2023/04/13 03:27:17;;;;;;;3.40;1.87;;;;;;;;;;4984343;28;20198;-73
2023/04/13 03:29:47;;;;;;;2.77;2.53;;;;;;;;;;4977383;28;20227;-73
2023/04/13 03:32:20;;;;;;;3.37;3.07;;;;;;;;;;4994774;28;20297;-72
2023/04/13 03:34:50;;;;;;;3.87;2.87;;;;;;;;;;4994570;28;20215;-72
2023/04/13 03:37:17;;;;;;;3.27;2.90;;;;;;;;;;5000388;28;20213;-73
2023/04/13 03:39:44;;;;;;;3.73;2.90;;;;;;;;;;4983766;28;21256;-72
2023/04/13 03:42:17;;;;;;;2.77;2.50;;;;;;;;;;4975415;28;20207;-73
2023/04/13 03:44:52;;;;;;;3.03;2.73;;;;;;;;;;5000841;28;20297;-72
2023/04/13 03:47:18;;;;;;;2.93;2.70;;;;;;;;;;4993722;28;20682;-73
2023/04/13 03:49:45;;;;;;;3.83;3.03;;;;;;;;;;4992809;28;20576;-72
2023/04/13 03:52:12;;;;;;;3.60;2.77;;;;;;;;;;5003259;28;20310;-73
2023/04/13 03:54:43;;;;;;;3.03;2.53;;;;;;;;;;5002299;28;20688;-72
2023/04/13 03:57:09;;;;;;;3.10;2.57;;;;;;;;;;4981341;28;20205;-73
2023/04/13 03:59:37;;;;;;;2.57;2.30;;;;;;;;;;4995852;28;20899;-73
2023/04/13 04:02:06;;;;;;;3.30;2.20;;;;;;;;;;4976438;28;20263;-73
2023/04/13 04:04:38;;;;;;;2.73;2.43;;;;;;;;;;4979205;28;20203;-72
2023/04/13 04:07:06;;;;;;;2.53;2.30;;;;;;;;;;4985336;28;20301;-73
2023/04/13 04:09:35;;;;;;;2.30;1.80;;;;;;;;;;4980249;28;20296;-73
2023/04/13 04:12:07;;;;;;;2.00;1.53;;;;;;;;;;4975370;28;20372;-72
2023/04/13 04:14:40;;;;;;;1.83;1.37;;;;;;;;;;4981278;28;20210;-72
2023/04/13 04:17:14;;;;;;;1.83;1.63;;;;;;;;;;4974119;28;20218;-73
2023/04/13 04:19:41;;;;;;;1.57;1.47;;;;;;;;;;4993833;28;20615;-72
2023/04/13 04:22:09;;;;;;;1.93;1.40;;;;;;;;;;4979456;28;20225;-73
2023/04/13 04:24:41;;;;;;;1.77;1.60;;;;;;;;;;4980914;28;20206;-73
2023/04/13 04:27:07;;;;;;;1.87;1.50;;;;;;;;;;5002314;28;20197;-73
2023/04/13 04:29:33;;;;;;;1.27;1.17;;;;;;;;;;4997632;28;20467;-73
2023/04/13 04:32:04;;;;;;;2.60;1.53;;;;;;;;;;4999411;28;20215;-72
2023/04/13 04:34:56;;;;;;;1.90;1.70;;;;;;;;;;4998819;28;20231;-73
2023/04/13 04:37:24;;;;;;;1.37;1.27;;;;;;;;;;5000102;28;20300;-72
2023/04/13 04:40:06;;;;;;;3.07;1.17;;;;;;;;;;4982846;28;20341;-72
2023/04/13 04:42:38;;;;;;;1.70;1.60;;;;;;;;;;4980721;28;20583;-72
2023/04/13 04:45:10;;;;;;;1.43;1.33;;;;;;;;;;4995154;28;20275;-72
2023/04/13 04:47:42;;;;;;;2.50;1.30;;;;;;;;;;4996455;28;20299;-73
2023/04/13 04:50:16;;;;;;;1.63;1.53;;;;;;;;;;4996690;28;20271;-73
2023/04/13 04:52:44;;;;;;;2.33;1.33;;;;;;;;;;4997229;28;21059;-72
2023/04/13 04:55:14;;;;;;;1.70;1.23;;;;;;;;;;4978071;28;20247;-73
2023/04/13 04:57:42;;;;;;;1.70;1.40;;;;;;;;;;5001151;28;20204;-72
2023/04/13 05:00:14;;;;;;;2.13;1.53;;;;;;;;;;4984020;28;20759;-72
2023/04/13 05:03:07;;;;;;;1.20;1.10;;;;;;;;;;5000371;28;20729;-72
2023/04/13 05:05:37;;;;;;;1.10;1.00;;;;;;;;;;4970511;28;20582;-72
2023/04/13 05:08:08;;;;;;;1.47;1.23;;;;;;;;;;4984928;28;20202;-73
2023/04/13 05:10:42;;;;;;;1.20;1.10;;;;;;;;;;4998441;28;20213;-72
2023/04/13 05:13:09;;;;;;;1.00;1.00;;;;;;;;;;4996918;28;20385;-72
2023/04/13 05:16:00;;;;;;;1.60;1.47;;;;;;;;;;5019389;22;20298;-70
2023/04/13 05:18:31;;;;;;;1.10;1.00;;;;;;;;;;5012305;28;20724;-70
2023/04/13 05:20:58;;;;;;;2.80;1.27;;;;;;;;;;5013234;28;20299;-70
2023/04/13 05:23:24;;;;;;;1.60;1.20;;;;;;;;;;4998312;28;20860;-69
2023/04/13 05:25:57;;;;;;;1.37;1.23;;;;;;;;;;5008303;28;20228;-71
2023/04/13 05:28:25;;;;;;;1.27;1.00;;;;;;;;;;4992230;28;20214;-69
2023/04/13 05:30:59;;;;;;;2.00;1.20;;;;;;;;;;4975019;28;20254;-70
2023/04/13 05:33:52;;;;;;;1.30;1.20;;;;;;;;;;4986782;28;20236;-69
2023/04/13 05:36:18;;;;;;;2.00;1.17;;;;;;;;;;4971608;28;20255;-69
2023/04/13 05:38:46;;;;;;;2.47;1.40;;;;;;;;;;4977547;28;20260;-70
2023/04/13 05:41:14;;;;;;;1.67;1.10;;;;;;;;;;4993387;28;20723;-70
2023/04/13 05:43:41;;;;;;;1.63;1.20;;;;;;;;;;4969884;28;20294;-68
2023/04/13 05:46:10;;;;;;;1.10;1.00;;;;;;;;;;4975731;28;20797;-69
2023/04/13 05:48:36;;;;;;;1.77;1.40;;;;;;;;;;5001648;28;20401;-70
2023/04/13 05:51:08;;;;;;;1.73;1.10;;;;;;;;;;4983213;28;20965;-69
2023/04/13 05:53:37;;;;;;;1.60;1.47;;;;;;;;;;4978259;28;20209;-70
2023/04/13 05:56:04;;;;;;;1.60;1.10;;;;;;;;;;4978721;28;20225;-69
2023/04/13 05:58:33;;;;;;;1.17;0.80;;;;;;;;;;4993451;28;20231;-70
2023/04/13 06:01:28;;;;;;;4.00;1.13;;;;;;;;;;4984606;28;20240;-69
2023/04/13 06:03:55;;;;;;;0.93;0.87;;;;;;;;;;4974627;28;20209;-68
2023/04/13 06:06:48;;;;;;;0.83;0.80;;;;;;;;;;4987902;28;20227;-69
2023/04/13 06:09:14;;;;;;;0.70;0.70;;;;;;;;;;4979583;28;20211;-69
2023/04/13 06:11:45;;;;;;;3.07;1.07;;;;;;;;;;4990092;28;20244;-69
2023/04/13 06:14:11;;;;;;;1.37;0.97;;;;;;;;;;4974718;28;20232;-68
2023/04/13 06:16:40;;;;;;;0.87;0.70;;;;;;;;;;4991222;28;20327;-69
2023/04/13 06:19:06;;;;;;;1.00;0.87;;;;;;;;;;4971200;28;21238;-69
2023/04/13 06:21:33;;;;;;;1.10;0.80;;;;;;;;;;4991893;28;20675;-69
2023/04/13 06:24:01;;;;;;;1.00;0.80;;;;;;;;;;4993588;28;20205;-69
2023/04/13 06:26:36;;;;;;;1.93;0.90;;;;;;;;;;4993298;28;21867;-69
2023/04/13 06:29:02;;;;;;;0.70;0.70;;;;;;;;;;4975261;28;20778;-68
2023/04/13 06:31:46;;;;;;;0.90;0.83;;;;;;;;;;4974141;28;20207;-70
2023/04/13 06:34:16;;;;;;;0.97;0.70;;;;;;;;;;4975415;28;20220;-68
2023/04/13 06:36:46;;;;;;;1.67;0.73;;;;;;;;;;4972453;28;20718;-68
2023/04/13 06:39:16;;;;;;;0.50;0.50;;;;;;;;;;4979354;28;20198;-68
2023/04/13 06:41:51;;;;;;;0.60;0.60;;;;;;;;;;4989603;28;20228;-68
2023/04/13 06:44:41;;;;;;;0.70;0.60;;;;;;;;;;4991462;28;20213;-69
2023/04/13 06:47:07;;;;;;;0.87;0.77;;;;;;;;;;4977502;28;20756;-68
2023/04/13 06:49:35;;;;;;;0.57;0.57;;;;;;;;;;4989812;28;20217;-69
2023/04/13 06:52:02;;;;;;;0.70;0.70;;;;;;;;;;4976242;28;20704;-69
2023/04/13 06:54:33;;;;;;;2.00;0.70;;;;;;;;;;4974393;28;20658;-69
2023/04/13 06:57:05;;;;;;;0.50;0.50;;;;;;;;;;4970234;28;20232;-67
2023/04/13 06:59:31;;;;;;;0.60;0.53;;;;;;;;;;4965432;28;20221;-68
2023/04/13 07:01:58;;;;;;;1.13;0.70;;;;;;;;;;4967963;28;20221;-68
2023/04/13 07:04:24;;;;;;;0.50;0.50;;;;;;;;;;4985898;28;20234;-68
2023/04/13 07:06:51;;;;;;;0.67;0.67;;;;;;;;;;4975484;28;20236;-68
2023/04/13 07:09:18;;;;;;;0.70;0.70;;;;;;;;;;4983696;28;20805;-69
2023/04/13 07:11:52;;;;;;;0.50;0.50;;;;;;;;;;4974146;28;20202;-69
2023/04/13 07:14:18;;;;;;;5.47;0.70;;;;;;;;;;4974716;28;20855;-68
2023/04/13 07:16:45;;;;;;;0.80;0.80;;;;;;;;;;4974304;28;20241;-68
2023/04/13 07:19:13;;;;;;;0.90;0.60;;;;;;;;;;4968929;28;20814;-69
2023/04/13 07:21:40;;;;;;;0.97;0.70;;;;;;;;;;4967415;28;20203;-69
2023/04/13 07:24:06;;;;;;;0.70;0.70;;;;;;;;;;4973806;28;20301;-68
2023/04/13 07:26:35;;;;;;;0.60;0.60;;;;;;;;;;4972173;28;20287;-68
2023/04/13 07:29:03;;;;;;;0.60;0.60;;;;;;;;;;4973753;28;20269;-69
2023/04/13 07:31:34;;;;;;;1.37;0.90;;;;;;;;;;4971903;28;20210;-69
2023/04/13 07:34:05;;;;;;;0.90;0.70;;;;;;;;;;4971962;28;20716;-69
2023/04/13 07:36:40;;;;;;;2.20;0.87;;;;;;;;;;4970869;28;20242;-69
2023/04/13 07:39:11;;;;;;;0.80;0.80;;;;;;;;;;4966266;28;20202;-68
2023/04/13 07:41:41;;;;;;;0.73;0.70;;;;;;;;;;4969439;28;20216;-69
2023/04/13 07:44:13;;;;;;;1.20;0.70;;;;;;;;;;4971035;28;20211;-69
2023/04/13 07:46:42;;;;;;;0.80;0.70;;;;;;;;;;4985717;28;20962;-68
2023/04/13 07:49:08;;;;;;;1.67;1.20;;;;;;;;;;4970553;28;20211;-67
2023/04/13 07:51:59;;;;;;;1.40;1.30;;;;;;;;;;4990625;28;20610;-69
2023/04/13 07:54:29;;;;;;;1.83;1.07;;;;;;;;;;4976060;28;20668;-68
2023/04/13 07:56:58;;;;;;;2.87;2.10;;;;;;;;;;4980418;28;20233;-69
2023/04/13 07:59:29;;;;;;;1.20;1.00;;;;;;;;;;4976159;28;20218;-69
2023/04/13 08:01:57;;;;;;;0.90;0.80;;;;;;;;;;4969066;28;20238;-69
2023/04/13 08:04:25;;;;;;;2.20;0.90;;;;;;;;;;4965164;28;20684;-68
2023/04/13 08:06:52;;;;;;;1.07;0.93;;;;;;;;;;4987894;28;20645;-69
2023/04/13 08:09:19;;;;;;;2.37;1.00;;;;;;;;;;4971811;28;20219;-69
2023/04/13 08:11:45;;;;;;;1.20;1.07;;;;;;;;;;4967687;28;20215;-69
2023/04/13 08:14:13;;;;;;;0.80;0.80;;;;;;;;;;4989277;28;20559;-69
2023/04/13 08:16:41;;;;;;;1.17;0.70;;;;;;;;;;4975604;28;21288;-68
2023/04/13 08:19:09;;;;;;;0.73;0.73;;;;;;;;;;4974579;28;20686;-69
2023/04/13 08:21:41;;;;;;;2.10;0.90;;;;;;;;;;4976214;28;20299;-69
2023/04/13 08:24:08;;;;;;;0.80;0.80;;;;;;;;;;4983368;28;20320;-69
2023/04/13 08:26:35;;;;;;;2.03;0.90;;;;;;;;;;4989257;28;20220;-69
2023/04/13 08:29:02;;;;;;;0.70;0.60;;;;;;;;;;4993961;28;20235;-69
2023/04/13 08:31:28;;;;;;;3.40;1.00;;;;;;;;;;4993477;28;20212;-69
2023/04/13 08:34:00;;;;;;;1.00;0.90;;;;;;;;;;4990042;28;20205;-69
2023/04/13 08:36:53;;;;;;;2.33;1.23;;;;;;;;;;4995769;28;20235;-68
2023/04/13 08:39:23;;;;;;;1.57;1.20;;;;;;;;;;4980169;28;20211;-69
2023/04/13 08:41:50;;;;;;;3.30;1.80;;;;;;;;;;4992755;28;20201;-69
2023/04/13 08:44:19;;;;;;;2.20;0.80;;;;;;;;;;4992065;28;20231;-68
2023/04/13 08:46:48;;;;;;;1.03;0.93;;;;;;;;;;4977724;28;20275;-69
2023/04/13 08:49:20;;;;;;;3.07;1.00;;;;;;;;;;4966505;28;20215;-67
2023/04/13 08:52:07;;;;;;;1.20;1.10;;;;;;;;;;4982171;28;20431;-69
2023/04/13 08:54:35;;;;;;;1.83;1.13;;;;;;;;;;4984912;28;20212;-69
2023/04/13 08:57:05;;;;;;;1.20;1.10;;;;;;;;;;4972261;28;20422;-69
2023/04/13 08:59:32;;;;;;;1.03;0.83;;;;;;;;;;4986563;28;20205;-68
2023/04/13 09:02:00;;;;;;;1.77;1.40;;;;;;;;;;4974878;28;20649;-68
2023/04/13 09:04:37;;;;;;;3.03;1.40;;;;;;;;;;4971812;28;20205;-69
2023/04/13 09:07:05;;;;;;;1.77;1.33;;;;;;;;;;4977864;28;20950;-69
2023/04/13 09:09:37;;;;;;;0.77;0.73;;;;;;;;;;4970265;28;20202;-68
2023/04/13 09:12:04;;;;;;;1.07;0.90;;;;;;;;;;4978914;28;20214;-68
2023/04/13 09:14:31;;;;;;;1.10;1.00;;;;;;;;;;4973369;28;20203;-69
2023/04/13 09:16:57;;;;;;;0.70;0.70;;;;;;;;;;4990102;28;20604;-69
2023/04/13 09:19:30;;;;;;;0.73;0.73;;;;;;;;;;4972596;28;20199;-69
2023/04/13 09:21:58;;;;;;;2.90;1.13;;;;;;;;;;4982372;28;20235;-68
2023/04/13 09:24:24;;;;;;;2.83;0.97;;;;;;;;;;4986379;28;20266;-69
2023/04/13 09:26:51;;;;;;;1.40;1.00;;;;;;;;;;4993262;28;20233;-68
2023/04/13 09:29:18;;;;;;;1.40;0.77;;;;;;;;;;4996111;28;20237;-69
2023/04/13 09:31:45;;;;;;;2.40;0.90;;;;;;;;;;4989698;28;20206;-68
2023/04/13 09:34:11;;;;;;;1.03;0.87;;;;;;;;;;4991728;28;20231;-68
2023/04/13 09:36:38;;;;;;;1.40;0.90;;;;;;;;;;4994919;28;20233;-68
2023/04/13 09:39:05;;;;;;;2.63;1.03;;;;;;;;;;4992779;28;20287;-68
2023/04/13 09:41:32;;;;;;;2.53;1.20;;;;;;;;;;4993227;28;20207;-68
2023/04/13 09:43:59;;;;;;;4.27;1.30;;;;;;;;;;4991418;28;20237;-69
2023/04/13 09:46:25;;;;;;;1.47;0.70;;;;;;;;;;4991421;28;20250;-69
2023/04/13 09:48:57;;;;;;;1.47;0.80;;;;;;;;;;4991589;28;20670;-68
2023/04/13 09:51:24;;;;;;;2.10;0.80;;;;;;;;;;4994199;28;20703;-69
2023/04/13 09:53:52;;;;;;;1.87;1.00;;;;;;;;;;4988937;28;20288;-68
2023/04/13 09:56:20;;;;;;;2.00;1.10;;;;;;;;;;4991711;28;20229;-69
2023/04/13 09:58:47;;;;;;;2.23;1.43;;;;;;;;;;4991602;28;20579;-69
2023/04/13 10:01:14;;;;;;;0.93;0.77;;;;;;;;;;4993631;28;20285;-68
2023/04/13 10:03:41;;;;;;;1.97;0.97;;;;;;;;;;4991963;28;20309;-70
2023/04/13 10:06:08;;;;;;;2.07;0.80;;;;;;;;;;4989550;28;20605;-68
2023/04/13 10:08:34;;;;;;;3.23;1.10;;;;;;;;;;4992627;28;20211;-69
2023/04/13 10:11:01;;;;;;;2.73;1.80;;;;;;;;;;4992142;28;20204;-68
2023/04/13 10:13:30;;;;;;;3.80;1.20;;;;;;;;;;4990679;28;20197;-68
2023/04/13 10:16:03;;;;;;;2.87;0.87;;;;;;;;;;4992440;28;20583;-69
2023/04/13 10:18:36;;;;;;;2.00;0.87;;;;;;;;;;4989469;28;20584;-69
2023/04/13 10:21:03;;;;;;;1.30;0.73;;;;;;;;;;4994146;28;20207;-69
2023/04/13 10:23:32;;;;;;;1.13;0.70;;;;;;;;;;4978651;28;20221;-69
2023/04/13 10:26:02;;;;;;;2.63;0.80;;;;;;;;;;4991410;28;20227;-69
2023/04/13 10:28:41;;;;;;;1.17;0.80;;;;;;;;;;4989676;28;20292;-68
2023/04/13 10:31:07;;;;;;;2.30;1.07;;;;;;;;;;4994181;28;20239;-69
2023/04/13 10:33:33;;;;;;;1.53;0.63;;;;;;;;;;4989213;28;20208;-68
2023/04/13 10:36:00;;;;;;;2.23;0.83;;;;;;;;;;4988916;28;20236;-69
2023/04/13 10:38:26;;;;;;;1.80;0.70;;;;;;;;;;4990708;28;20212;-69
2023/04/13 10:40:53;;;;;;;0.63;0.53;;;;;;;;;;4990040;28;20204;-68
2023/04/13 10:43:27;;;;;;;2.63;0.80;;;;;;;;;;4995207;28;20251;-69
2023/04/13 10:46:05;;;;;;;0.60;0.60;;;;;;;;;;4990736;28;20793;-69
2023/04/13 10:48:31;;;;;;;3.17;0.70;;;;;;;;;;4993166;28;20263;-69
2023/04/13 10:50:58;;;;;;;2.00;0.70;;;;;;;;;;4986667;28;20220;-68
2023/04/13 10:53:27;;;;;;;0.87;0.57;;;;;;;;;;4987942;28;20271;-68
2023/04/13 10:55:53;;;;;;;1.73;1.00;;;;;;;;;;4991231;28;20231;-69
2023/04/13 10:58:19;;;;;;;0.60;0.60;;;;;;;;;;4990523;28;20219;-69
2023/04/13 11:00:47;;;;;;;1.93;0.70;;;;;;;;;;4994492;28;20262;-68
2023/04/13 11:03:18;;;;;;;1.90;0.70;;;;;;;;;;4992525;28;20656;-68
2023/04/13 11:05:45;;;;;;;0.50;0.50;;;;;;;;;;4986886;28;20321;-68
2023/04/13 11:08:17;;;;;;;0.90;0.70;;;;;;;;;;4991588;28;20209;-69
2023/04/13 11:10:49;;;;;;;0.93;0.60;;;;;;;;;;4992259;28;20214;-69
2023/04/13 11:13:16;;;;;;;3.00;1.00;;;;;;;;;;4994669;28;20563;-69
2023/04/13 11:18:10;;;;;;;1.03;0.70;;;;;;;;;;4958170;28;20618;-74
2023/04/13 11:20:38;;;;;;;0.73;0.73;;;;;;;;;;4956819;28;20702;-72
2023/04/13 11:23:05;;;;;;;2.83;0.80;;;;;;;;;;4958035;28;20217;-72
2023/04/13 11:25:33;;;;;;;1.27;0.90;;;;;;;;;;4957480;28;20245;-72
2023/04/13 11:28:00;;;;;;;1.53;0.80;;;;;;;;;;4940590;28;20266;-72
2023/04/13 11:30:52;;;;;;;1.27;0.93;;;;;;;;;;4945012;28;20213;-72
2023/04/13 11:33:24;;;;;;;1.27;0.90;;;;;;;;;;4944059;28;20202;-72
2023/04/13 11:35:51;;;;;;;0.60;0.60;;;;;;;;;;4943935;28;20210;-72
2023/04/13 11:38:19;;;;;;;0.80;0.80;;;;;;;;;;4946594;28;20206;-72
2023/04/13 11:40:47;;;;;;;3.43;0.70;;;;;;;;;;4959309;28;20239;-72
2023/04/13 11:43:14;;;;;;;1.97;0.53;;;;;;;;;;4942215;28;20230;-72
2023/04/13 11:45:42;;;;;;;1.20;0.90;;;;;;;;;;4944764;28;20695;-72
2023/04/13 11:48:08;;;;;;;2.83;0.83;;;;;;;;;;4942920;28;20591;-72
2023/04/13 11:50:35;;;;;;;2.87;1.07;;;;;;;;;;4941786;28;20210;-72
2023/04/13 11:53:09;;;;;;;1.93;0.70;;;;;;;;;;4944933;28;20218;-72
2023/04/13 11:55:37;;;;;;;1.10;0.70;;;;;;;;;;4942961;28;20202;-72
2023/04/13 11:58:06;;;;;;;0.80;0.80;;;;;;;;;;4944773;28;20207;-72
2023/04/13 12:00:32;;;;;;;1.33;0.87;;;;;;;;;;4940482;28;20467;-72
2023/04/13 12:03:01;;;;;;;3.93;1.20;;;;;;;;;;4945233;28;20544;-72
2023/04/13 12:05:32;;;;;;;1.73;1.00;;;;;;;;;;4944636;28;20200;-72
2023/04/13 12:07:58;;;;;;;1.67;1.10;;;;;;;;;;4943746;28;20229;-72
2023/04/13 12:10:26;;;;;;;1.43;0.97;;;;;;;;;;4941748;28;20219;-72
2023/04/13 12:12:56;;;;;;;2.80;0.83;;;;;;;;;;4944327;28;20254;-72
2023/04/13 12:15:24;;;;;;;1.60;0.77;;;;;;;;;;4947324;28;20206;-72
2023/04/13 12:17:53;;;;;;;2.27;1.93;;;;;;;;;;4945809;28;20295;-72
2023/04/13 12:20:19;;;;;;;1.13;0.87;;;;;;;;;;4941713;28;20200;-72
2023/04/13 12:22:45;;;;;;;1.57;0.90;;;;;;;;;;4945027;28;20222;-72
2023/04/13 12:25:12;;;;;;;3.60;0.87;;;;;;;;;;4942627;28;20289;-72
2023/04/13 12:27:41;;;;;;;3.97;0.70;;;;;;;;;;4945626;28;20722;-72
2023/04/13 12:30:09;;;;;;;1.10;0.80;;;;;;;;;;4944058;28;20464;-72
2023/04/13 12:32:39;;;;;;;0.90;0.70;;;;;;;;;;4937359;28;20209;-72
2023/04/13 12:35:06;;;;;;;3.20;0.83;;;;;;;;;;4938804;28;20211;-72
2023/04/13 12:37:32;;;;;;;3.60;1.03;;;;;;;;;;4948177;28;20656;-72
2023/04/13 12:39:58;;;;;;;1.37;0.70;;;;;;;;;;4944172;28;20210;-72
2023/04/13 12:42:24;;;;;;;0.77;0.70;;;;;;;;;;4947974;28;20226;-72
2023/04/13 12:44:53;;;;;;;2.10;0.70;;;;;;;;;;4942046;28;20221;-72
2023/04/13 12:47:20;;;;;;;1.17;1.00;;;;;;;;;;4944273;28;20262;-72
2023/04/13 12:49:46;;;;;;;1.63;0.80;;;;;;;;;;4944393;28;20214;-72
2023/04/13 12:52:12;;;;;;;2.40;0.60;;;;;;;;;;4944270;28;20220;-72
2023/04/13 12:54:38;;;;;;;0.90;0.70;;;;;;;;;;4945160;28;20279;-72
2023/04/13 12:57:05;;;;;;;2.07;0.77;;;;;;;;;;4943506;28;20240;-72
2023/04/13 12:59:58;;;;;;;2.57;0.70;;;;;;;;;;4939651;28;20703;-72
2023/04/13 13:02:26;;;;;;;1.07;0.70;;;;;;;;;;4943910;28;20306;-72
2023/04/13 13:04:55;;;;;;;1.37;0.53;;;;;;;;;;4936727;28;20234;-72
2023/04/13 13:07:22;;;;;;;1.10;0.70;;;;;;;;;;4945029;28;20937;-72
2023/04/13 13:09:52;;;;;;;2.90;0.80;;;;;;;;;;4944425;28;20215;-72
2023/04/13 13:12:18;;;;;;;1.57;0.77;;;;;;;;;;4942306;28;20441;-72
2023/04/13 13:14:44;;;;;;;0.70;0.70;;;;;;;;;;4939159;28;20285;-72
2023/04/13 13:17:12;;;;;;;1.77;0.63;;;;;;;;;;4944772;28;20230;-72
2023/04/13 13:19:38;;;;;;;1.37;0.90;;;;;;;;;;4939872;28;20684;-72
2023/04/13 13:22:05;;;;;;;1.37;0.70;;;;;;;;;;4943195;28;20649;-72
2023/04/13 13:24:34;;;;;;;0.83;0.67;;;;;;;;;;4943382;28;20717;-72
2023/04/13 13:27:00;;;;;;;1.00;0.73;;;;;;;;;;4943354;28;20232;-72
2023/04/13 13:29:32;;;;;;;1.50;0.90;;;;;;;;;;4943261;28;20551;-72
2023/04/13 13:31:58;;;;;;;1.33;0.60;;;;;;;;;;4943151;28;20217;-72
2023/04/13 13:34:26;;;;;;;1.60;0.70;;;;;;;;;;4941568;28;20222;-72
2023/04/13 13:36:53;;;;;;;0.90;0.70;;;;;;;;;;4940812;28;20226;-72
2023/04/13 13:39:20;;;;;;;1.33;0.80;;;;;;;;;;4943000;28;20237;-72
2023/04/13 13:41:47;;;;;;;2.30;0.90;;;;;;;;;;4943682;28;20319;-72
2023/04/13 13:44:13;;;;;;;1.27;0.73;;;;;;;;;;4944189;28;20230;-72
2023/04/13 13:46:39;;;;;;;1.27;0.80;;;;;;;;;;4942902;28;20242;-72
2023/04/13 13:49:06;;;;;;;1.93;1.00;;;;;;;;;;4954019;28;20208;-74
2023/04/13 13:51:55;;;;;;;2.90;0.77;;;;;;;;;;4942344;28;20623;-73
2023/04/13 13:54:25;;;;;;;0.60;0.60;;;;;;;;;;4923761;28;20433;-72
2023/04/13 13:56:52;;;;;;;1.27;0.80;;;;;;;;;;4938009;28;20241;-72
2023/04/13 13:59:19;;;;;;;1.20;0.60;;;;;;;;;;4943851;28;20337;-72
2023/04/13 14:01:45;;;;;;;1.87;1.10;;;;;;;;;;4942421;28;20711;-72
2023/04/13 14:04:12;;;;;;;1.13;0.60;;;;;;;;;;4936676;28;20252;-72
2023/04/13 14:06:38;;;;;;;1.20;0.70;;;;;;;;;;4941493;28;20316;-72
2023/04/13 14:09:06;;;;;;;1.27;0.80;;;;;;;;;;4940864;28;20580;-72
2023/04/13 14:11:36;;;;;;;1.83;0.70;;;;;;;;;;4941614;28;20211;-72
2023/04/13 14:14:02;;;;;;;1.77;0.70;;;;;;;;;;4941103;28;20225;-72
2023/04/13 14:16:29;;;;;;;0.90;0.60;;;;;;;;;;4935504;28;20234;-72
2023/04/13 14:18:55;;;;;;;0.53;0.50;;;;;;;;;;4920070;29;20576;-72
2023/04/13 14:21:21;;;;;;;0.70;0.70;;;;;;;;;;4925002;29;20218;-72
2023/04/13 14:23:49;;;;;;;0.60;0.50;;;;;;;;;;4919753;29;20287;-72
2023/04/13 14:26:16;;;;;;;3.07;0.80;;;;;;;;;;4922327;29;20291;-72
2023/04/13 14:28:43;;;;;;;1.37;0.73;;;;;;;;;;4918905;29;20222;-72
2023/04/13 14:31:09;;;;;;;1.63;0.70;;;;;;;;;;4918330;29;20202;-72
2023/04/13 14:33:36;;;;;;;2.90;0.90;;;;;;;;;;4919508;29;20199;-72
2023/04/13 14:36:02;;;;;;;0.97;0.60;;;;;;;;;;4917293;29;20217;-72
2023/04/13 14:38:30;;;;;;;0.77;0.60;;;;;;;;;;4915894;29;20203;-72
2023/04/13 14:40:59;;;;;;;0.60;0.60;;;;;;;;;;4919844;29;20209;-72
2023/04/13 14:43:32;;;;;;;0.80;0.70;;;;;;;;;;4924891;29;20279;-72
2023/04/13 14:45:58;;;;;;;0.90;0.60;;;;;;;;;;4922877;29;20236;-72
2023/04/13 14:48:24;;;;;;;0.83;0.70;;;;;;;;;;4923248;29;20584;-72
2023/04/13 14:50:51;;;;;;;2.43;0.90;;;;;;;;;;4922695;29;20552;-72
2023/04/13 14:53:17;;;;;;;1.27;0.80;;;;;;;;;;4925408;29;20215;-72
2023/04/13 14:55:46;;;;;;;0.67;0.60;;;;;;;;;;4925218;29;20206;-72
2023/04/13 14:58:12;;;;;;;0.80;0.60;;;;;;;;;;4921243;29;20222;-72